Airfield :
LOGIN :

Register | Disclaimer

   EN    FR    IT 

 










Legend :    VFR   Marginal VFR   IFR   Intensive IFR   Very Intensive IFR
Visi :
Ceiling :
>= 8 km
>= 3000ft
5 to 8 km
1000 to 3000 ft
1500m to 5 km
500 to 1000 ft
800 to 1500m
200 to 500 ft
< 800m
< 200 ft
Symbols :   Thunderstorms  Fog  Heavy snow  Heavy precipitations  Wind > 20 kt
SIGMETs :     Misc.  Thunderstorms  Icing  Turbulence  Mountain Waves  Volcanic Ashes






- Airport Elevation : 526 ft
- IATA code : LTN


EGGW - London Luton

CURRENT METAR :
  • 251720Z AUTO 28014KT 9999 NCD 02/M01 Q1012

EXPIRED METARs :
  • 251650Z AUTO 28012KT 9999 NCD 02/M01 Q1012
  • 251620Z AUTO 28015KT 9999 NCD 02/M01 Q1011
  • 251550Z AUTO 28013KT 9999 NCD 02/M01 Q1011
  • 251520Z AUTO 28013KT 9999 NCD 03/M01 Q1011
  • 251450Z AUTO 28014KT 9999 NCD 03/M01 Q1010

TAF TAF EGGW
Valid from the 25 at 18:00 until the 26 at 18:00 UTC


251707Z 2518/2618 27011KT CAVOK
PROB30 2604/2610 8000
BECMG 2606/2609 20008KT BKN025
BECMG 2609/2612 BKN007
TEMPO 2610/2618 6000 RA
PROB40
TEMPO 2612/2618 3000 RADZ BR BKN003
ATIS : +44 1582 395 204



MET'MAP, your aeronautical weather chart ! - Copyright ORBIFLY December 2007 - Disclaimer

ORBIFLY MET'MAP TEAM :

Programming & Development : Alexandra Zaïnal
Concept & original design : Baudouin d'Aumeries
Assistance for programming : Marc-Olivier Méhu
Technical & hardware support : Manuel Goepfert

Contact : metmap@orbifly.com




SOURCES & CREDITS :

   NOAA